createdAt,value
2022-08-04T00:03:40.064Z,9.75
2022-08-04T00:07:47.103Z,6.70
2022-08-04T00:11:51.805Z,9.93
2022-08-04T00:15:55.150Z,13.73
2022-08-04T00:20:00.921Z,9.70
2022-08-04T00:24:11.330Z,4.82
2022-08-04T00:28:15.899Z,8.30
2022-08-04T00:32:15.844Z,5.00
2022-08-04T00:36:35.357Z,5.23
2022-08-04T00:40:47.592Z,5.72
2022-08-04T00:45:03.549Z,10.30
2022-08-04T00:49:35.262Z,4.10
2022-08-04T00:53:50.176Z,4.53
2022-08-04T00:58:05.645Z,3.67
2022-08-04T01:02:19.649Z,10.15
2022-08-04T01:06:33.136Z,7.25
2022-08-04T01:10:43.431Z,4.97
2022-08-04T01:15:05.357Z,13.98
2022-08-04T01:19:18.215Z,10.55
2022-08-04T01:23:53.699Z,13.57
2022-08-04T01:28:12.740Z,7.85
2022-08-04T01:32:26.153Z,3.93
2022-08-04T01:36:27.236Z,7.60
2022-08-04T01:40:29.842Z,3.22
2022-08-04T01:44:30.772Z,4.35
2022-08-04T01:48:33.771Z,3.90
2022-08-04T01:52:34.235Z,4.13
2022-08-04T01:56:34.166Z,5.78
2022-08-04T02:00:35.928Z,4.88
2022-08-04T02:04:38.387Z,5.57
2022-08-04T02:08:53.576Z,3.33
2022-08-04T02:12:59.691Z,4.07
2022-08-04T02:16:59.127Z,6.07
2022-08-04T02:21:03.834Z,3.80
2022-08-04T02:25:08.495Z,5.10
2022-08-04T02:29:16.112Z,2.92
2022-08-04T02:33:19.653Z,3.97
2022-08-04T02:37:24.109Z,7.20
2022-08-04T02:41:25.409Z,4.97
2022-08-04T02:45:27.823Z,5.38
2022-08-04T02:49:29.001Z,6.68
2022-08-04T02:53:39.083Z,3.72
2022-08-04T02:57:39.961Z,8.00
2022-08-04T03:01:57.574Z,4.45
2022-08-04T03:06:18.561Z,5.45
2022-08-04T03:10:38.531Z,8.27
2022-08-04T03:15:07.438Z,10.68
2022-08-04T03:19:57.151Z,10.80
2022-08-04T03:24:20.742Z,5.65
2022-08-04T03:28:42.910Z,7.75
2022-08-04T03:33:22.120Z,9.50
2022-08-04T03:37:46.018Z,10.45
2022-08-04T03:42:08.282Z,13.40
2022-08-04T03:46:37.146Z,10.05
2022-08-04T03:51:35.109Z,14.07
2022-08-04T03:56:08.762Z,6.32
2022-08-04T04:00:11.462Z,15.18
2022-08-04T04:04:36.470Z,12.18
2022-08-04T04:09:13.560Z,8.90
2022-08-04T04:13:33.278Z,16.70
2022-08-04T04:18:14.145Z,9.68
2022-08-04T04:22:35.360Z,14.32
2022-08-04T04:26:51.214Z,11.98
2022-08-04T04:31:03.535Z,11.27
2022-08-04T04:35:17.794Z,19.20
2022-08-04T04:39:29.421Z,23.65
2022-08-04T04:43:57.896Z,31.88
2022-08-04T04:48:08.623Z,29.92
2022-08-04T04:52:20.270Z,33.67
2022-08-04T04:56:30.303Z,31.30
2022-08-04T05:00:46.859Z,31.13
2022-08-04T05:05:24.266Z,17.95
2022-08-04T05:09:39.515Z,14.93
2022-08-04T05:14:34.838Z,19.70
2022-08-04T05:18:16.826Z,13.65
2022-08-04T05:22:25.231Z,7.78
2022-08-04T05:26:31.981Z,8.75
2022-08-04T05:30:46.791Z,12.67
2022-08-04T05:34:51.310Z,12.88
2022-08-04T05:38:59.400Z,9.35
2022-08-04T05:43:00.521Z,10.55
2022-08-04T05:47:04.021Z,6.35
2022-08-04T05:51:05.241Z,15.55
2022-08-04T05:55:09.673Z,12.93
2022-08-04T05:59:13.330Z,4.15
2022-08-04T06:03:16.843Z,4.90
2022-08-04T06:07:16.896Z,6.93
2022-08-04T06:12:03.844Z,7.15
2022-08-04T06:16:12.622Z,3.00
2022-08-04T06:21:25.176Z,9.68
2022-08-04T06:25:49.991Z,3.15
2022-08-04T06:29:51.919Z,4.57
2022-08-04T06:34:10.942Z,3.20
2022-08-04T06:43:51.765Z,4.35
2022-08-04T06:48:19.377Z,3.10
2022-08-04T06:52:24.536Z,5.93
2022-08-04T06:56:26.053Z,8.05
2022-08-04T07:00:29.788Z,6.07
2022-08-04T07:04:30.560Z,2.95
2022-08-04T07:08:30.225Z,3.00
2022-08-04T07:12:32.210Z,7.40
2022-08-04T07:16:53.821Z,7.60
2022-08-04T07:20:54.777Z,6.38
2022-08-04T07:25:01.314Z,8.75
2022-08-04T07:29:06.205Z,7.82
2022-08-04T07:33:15.398Z,3.38
2022-08-04T07:37:14.873Z,7.30
2022-08-04T07:45:38.962Z,6.45
2022-08-04T07:49:54.360Z,7.20
2022-08-04T07:54:00.632Z,9.88
2022-08-04T07:58:05.128Z,5.40
2022-08-04T08:02:05.121Z,8.05
2022-08-04T08:06:17.363Z,9.90
2022-08-04T08:10:34.293Z,6.45
2022-08-04T08:14:47.795Z,6.13
2022-08-04T08:18:50.186Z,6.90
2022-08-04T08:22:59.116Z,5.90
2022-08-04T08:26:59.788Z,7.85
2022-08-04T08:31:01.685Z,10.85
2022-08-04T08:35:12.556Z,5.13
2022-08-04T08:39:24.498Z,6.57
2022-08-04T08:44:06.150Z,4.18
2022-08-04T08:48:37.937Z,12.18
2022-08-04T08:53:02.788Z,4.70
2022-08-04T08:57:22.483Z,3.55
2022-08-04T09:01:53.855Z,3.10
2022-08-04T09:06:15.601Z,4.15
2022-08-04T09:10:22.563Z,3.15
2022-08-04T09:14:31.641Z,2.50
2022-08-04T09:18:41.771Z,5.07
2022-08-04T09:22:53.101Z,8.25
2022-08-04T09:27:01.605Z,3.90
2022-08-04T09:31:28.340Z,6.15
2022-08-04T09:36:08.961Z,13.57
2022-08-04T09:40:31.774Z,14.85
2022-08-04T09:45:01.448Z,2.72
2022-08-04T09:49:16.730Z,3.97
2022-08-04T09:53:32.980Z,9.20
2022-08-04T09:57:47.969Z,6.07
2022-08-04T10:02:00.092Z,2.83
2022-08-04T10:06:16.256Z,4.25
2022-08-04T10:10:29.484Z,7.72
2022-08-04T10:14:40.915Z,5.65
2022-08-04T10:18:59.168Z,7.40
2022-08-04T10:23:14.836Z,3.75
2022-08-04T10:27:27.983Z,8.38
2022-08-04T10:32:01.744Z,4.15
2022-08-04T10:36:05.188Z,3.00
2022-08-04T10:40:35.696Z,4.68
2022-08-04T10:45:13.312Z,7.32
2022-08-04T10:49:33.528Z,2.60
2022-08-04T10:53:36.930Z,4.82
2022-08-04T10:57:45.541Z,10.65
2022-08-04T11:02:03.526Z,4.80
2022-08-04T11:08:30.667Z,3.60
2022-08-04T11:12:07.451Z,3.67
2022-08-04T11:16:23.233Z,2.57
2022-08-04T11:20:35.061Z,6.45
2022-08-04T11:24:43.898Z,3.78
2022-08-04T11:33:24.127Z,4.20
2022-08-04T11:37:29.314Z,2.72
2022-08-04T11:41:50.187Z,4.97
2022-08-04T11:45:55.386Z,2.80
2022-08-04T11:50:05.268Z,3.58
2022-08-04T11:54:07.874Z,5.20
2022-08-04T11:58:14.140Z,4.22
2022-08-04T12:03:00.761Z,2.78
2022-08-04T12:07:49.456Z,2.88
2022-08-04T12:12:09.742Z,13.93
2022-08-04T12:16:30.258Z,5.63
2022-08-04T12:20:51.558Z,6.90
2022-08-04T12:25:35.836Z,4.13
2022-08-04T12:31:02.137Z,10.05
2022-08-04T12:35:22.844Z,7.18
2022-08-04T12:40:29.580Z,2.90
2022-08-04T12:44:37.338Z,3.72
2022-08-04T12:48:47.492Z,5.70
2022-08-04T12:53:03.132Z,2.90
2022-08-04T12:57:20.686Z,5.57
2022-08-04T13:02:09.028Z,4.22
2022-08-04T13:05:54.957Z,15.93
2022-08-04T13:09:56.477Z,10.52
2022-08-04T13:14:17.637Z,3.42
2022-08-04T13:18:18.100Z,10.02
2022-08-04T13:22:27.600Z,3.42
2022-08-04T13:26:44.347Z,2.42
2022-08-04T13:30:57.693Z,7.13
2022-08-04T13:34:59.567Z,2.30
2022-08-04T13:39:19.354Z,3.22
2022-08-04T13:44:18.636Z,3.47
2022-08-04T13:48:37.695Z,3.97
2022-08-04T13:52:40.065Z,6.65
2022-08-04T13:56:59.734Z,22.35
2022-08-04T14:01:11.918Z,2.60
2022-08-04T14:05:27.853Z,2.80
2022-08-04T14:09:35.585Z,3.17
2022-08-04T14:13:40.941Z,2.25
2022-08-04T14:17:41.314Z,2.05
2022-08-04T14:21:41.204Z,3.90
2022-08-04T14:25:41.417Z,4.93
2022-08-04T14:29:43.493Z,3.90
2022-08-04T14:34:02.425Z,9.43
2022-08-04T14:38:15.906Z,11.75
2022-08-04T14:42:22.324Z,12.68
2022-08-04T14:46:53.574Z,1.73
2022-08-04T14:50:58.792Z,4.00
2022-08-04T14:54:58.603Z,3.65
2022-08-04T14:59:06.716Z,6.40
2022-08-04T15:03:34.019Z,9.95
2022-08-04T15:07:36.184Z,2.45
2022-08-04T15:11:41.507Z,6.43
2022-08-04T15:16:07.540Z,5.90
2022-08-04T15:20:07.602Z,4.35
2022-08-04T15:24:14.178Z,5.50
2022-08-04T15:28:16.977Z,2.20
2022-08-04T15:32:37.867Z,3.92
2022-08-04T15:36:45.396Z,5.03
2022-08-04T15:41:07.440Z,12.73
2022-08-04T15:45:23.773Z,11.68
2022-08-04T15:49:45.488Z,9.75
2022-08-04T15:54:27.715Z,6.00
2022-08-04T15:58:52.642Z,7.00
2022-08-04T16:02:57.908Z,6.55
2022-08-04T16:07:07.314Z,2.75
2022-08-04T16:11:08.290Z,8.05
2022-08-04T16:15:40.871Z,3.58
2022-08-04T16:20:03.313Z,2.10
2022-08-04T16:24:17.251Z,5.15
2022-08-04T16:28:41.970Z,5.72
2022-08-04T16:32:46.199Z,2.63
2022-08-04T16:37:02.451Z,3.58
2022-08-04T16:41:08.261Z,5.55
2022-08-04T16:45:17.562Z,3.38
2022-08-04T16:49:17.255Z,3.78
2022-08-04T16:53:52.782Z,11.00
2022-08-04T16:57:46.801Z,4.60
2022-08-04T17:01:51.102Z,4.93
2022-08-04T17:05:52.117Z,8.88
2022-08-04T17:09:58.119Z,8.93
2022-08-04T17:14:03.927Z,17.83
2022-08-04T17:18:18.854Z,18.73
2022-08-04T17:22:18.737Z,12.98
2022-08-04T17:26:22.978Z,9.63
2022-08-04T17:30:40.278Z,16.17
2022-08-04T17:34:55.396Z,8.43
2022-08-04T17:39:06.671Z,10.10
2022-08-04T17:44:04.773Z,6.07
2022-08-04T17:47:37.905Z,3.13
2022-08-04T17:52:05.298Z,3.95
2022-08-04T17:56:06.955Z,5.68
2022-08-04T18:00:19.649Z,3.72
2022-08-04T18:04:40.289Z,7.60
2022-08-04T18:09:21.886Z,2.67
2022-08-04T18:13:28.824Z,4.68
2022-08-04T18:18:21.011Z,2.63
2022-08-04T18:22:08.139Z,2.78
2022-08-04T18:26:16.539Z,2.60
2022-08-04T18:30:34.681Z,4.35
2022-08-04T18:34:40.673Z,4.10
2022-08-04T18:38:58.686Z,3.08
2022-08-04T18:43:00.009Z,5.82
2022-08-04T18:47:29.637Z,5.32
2022-08-04T18:51:31.081Z,5.47
2022-08-04T18:55:56.828Z,7.05
2022-08-04T19:00:01.369Z,3.05
2022-08-04T19:04:03.136Z,7.45
2022-08-04T19:08:33.651Z,2.90
2022-08-04T19:12:28.274Z,5.53
2022-08-04T19:16:29.335Z,5.53
2022-08-04T19:20:31.104Z,4.07
2022-08-04T19:24:34.816Z,3.80
2022-08-04T19:32:51.444Z,4.45
2022-08-04T19:36:53.239Z,3.25
2022-08-04T19:41:14.482Z,3.35
2022-08-04T19:45:15.956Z,6.40
2022-08-04T19:50:05.281Z,3.78
2022-08-04T19:53:43.124Z,2.80
2022-08-04T19:57:49.374Z,2.85
2022-08-04T20:01:49.621Z,2.78
2022-08-04T20:10:15.319Z,8.10
2022-08-04T20:14:17.226Z,3.85
2022-08-04T20:18:36.625Z,5.57
2022-08-04T20:26:58.201Z,4.38
2022-08-04T20:30:59.674Z,8.18
2022-08-04T20:35:00.032Z,3.83
2022-08-04T20:39:03.422Z,7.10
2022-08-04T20:43:03.402Z,5.05
2022-08-04T20:47:05.836Z,3.35
2022-08-04T20:51:07.885Z,3.30
2022-08-04T20:55:10.128Z,3.38
2022-08-04T20:59:10.043Z,6.47
2022-08-04T21:03:17.162Z,4.72
2022-08-04T21:07:25.994Z,4.78
2022-08-04T21:11:32.610Z,3.65
2022-08-04T21:15:58.517Z,5.50
2022-08-04T21:19:54.796Z,5.97
2022-08-04T21:23:55.403Z,3.13
2022-08-04T21:27:58.571Z,4.97
2022-08-04T21:31:58.835Z,4.18
2022-08-04T21:36:03.783Z,10.68
2022-08-04T21:40:15.559Z,4.25
2022-08-04T21:44:31.936Z,6.07
2022-08-04T21:48:33.139Z,13.45
2022-08-04T21:52:35.063Z,17.27
2022-08-04T21:56:34.903Z,13.50
2022-08-04T22:00:34.119Z,9.77
2022-08-04T22:04:33.869Z,11.82
2022-08-04T22:08:35.789Z,5.03
2022-08-04T22:12:38.571Z,9.18
2022-08-04T22:16:44.675Z,3.38
2022-08-04T22:20:45.451Z,4.75
2022-08-04T22:24:47.730Z,6.63
2022-08-04T22:28:49.244Z,8.50
2022-08-04T22:32:50.387Z,20.25
2022-08-04T22:36:50.387Z,9.75
2022-08-04T22:40:58.152Z,4.70
2022-08-04T22:44:57.974Z,7.63
2022-08-04T22:48:59.104Z,5.00
2022-08-04T22:52:58.994Z,8.18
2022-08-04T22:57:03.037Z,5.13
2022-08-04T23:01:04.599Z,8.35
2022-08-04T23:05:06.284Z,6.40
2022-08-04T23:09:06.141Z,9.20
2022-08-04T23:13:14.242Z,13.18
2022-08-04T23:17:14.685Z,4.75
2022-08-04T23:21:14.575Z,8.10
2022-08-04T23:25:17.070Z,14.45
2022-08-04T23:29:19.120Z,14.63
2022-08-04T23:33:18.831Z,11.50
2022-08-04T23:37:18.529Z,9.75
2022-08-04T23:41:18.505Z,6.43
2022-08-04T23:46:03.999Z,6.45
2022-08-04T23:49:45.027Z,6.90
2022-08-04T23:54:02.957Z,5.50
2022-08-04T23:58:16.762Z,7.07
